sensor_id;sensor_type;location;lat;lon;timestamp;pressure;altitude;pressure_sealevel;temperature;humidity
71735;BME280;59577;52.122;5.406;2023-03-26T00:01:32;100781.00;;;7.14;100.00
71735;BME280;59577;52.122;5.406;2023-03-26T00:04:15;100784.19;;;7.17;100.00
71735;BME280;59577;52.122;5.406;2023-03-26T00:06:45;100786.06;;;7.16;100.00
71735;BME280;59577;52.122;5.406;2023-03-26T00:09:15;100789.88;;;7.15;100.00
71735;BME280;59577;52.122;5.406;2023-03-26T00:12:06;100793.03;;;7.17;100.00
71735;BME280;59577;52.122;5.406;2023-03-26T00:14:36;100782.91;;;7.14;100.00
71735;BME280;59577;52.122;5.406;2023-03-26T00:17:02;100778.66;;;7.13;100.00
71735;BME280;59577;52.122;5.406;2023-03-26T00:19:29;100773.94;;;7.10;100.00
71735;BME280;59577;52.122;5.406;2023-03-26T00:21:59;100772.69;;;7.07;100.00
71735;BME280;59577;52.122;5.406;2023-03-26T00:24:25;100769.09;;;7.03;100.00
71735;BME280;59577;52.122;5.406;2023-03-26T00:26:55;100772.56;;;7.04;100.00
71735;BME280;59577;52.122;5.406;2023-03-26T00:29:21;100771.78;;;7.03;100.00
71735;BME280;59577;52.122;5.406;2023-03-26T00:31:57;100779.41;;;7.01;100.00
71735;BME280;59577;52.122;5.406;2023-03-26T00:34:24;100776.56;;;6.97;100.00
71735;BME280;59577;52.122;5.406;2023-03-26T00:36:51;100766.91;;;6.96;100.00
71735;BME280;59577;52.122;5.406;2023-03-26T00:39:20;100763.13;;;6.97;100.00
71735;BME280;59577;52.122;5.406;2023-03-26T00:41:49;100764.53;;;6.95;100.00
71735;BME280;59577;52.122;5.406;2023-03-26T00:44:20;100756.81;;;6.93;100.00
71735;BME280;59577;52.122;5.406;2023-03-26T00:46:46;100746.22;;;6.88;100.00
71735;BME280;59577;52.122;5.406;2023-03-26T00:49:13;100740.72;;;6.85;100.00
71735;BME280;59577;52.122;5.406;2023-03-26T00:51:40;100746.91;;;6.85;100.00
71735;BME280;59577;52.122;5.406;2023-03-26T00:54:09;100746.44;;;6.83;100.00
71735;BME280;59577;52.122;5.406;2023-03-26T00:56:36;100736.00;;;6.82;100.00
71735;BME280;59577;52.122;5.406;2023-03-26T00:59:20;100730.16;;;6.80;100.00
71735;BME280;59577;52.122;5.406;2023-03-26T01:02:14;100734.09;;;6.82;100.00
71735;BME280;59577;52.122;5.406;2023-03-26T01:04:52;100739.63;;;6.86;100.00
71735;BME280;59577;52.122;5.406;2023-03-26T01:07:29;100735.78;;;6.87;100.00
71735;BME280;59577;52.122;5.406;2023-03-26T01:09:58;100728.22;;;6.89;100.00
71735;BME280;59577;52.122;5.406;2023-03-26T01:12:29;100730.22;;;6.92;100.00
71735;BME280;59577;52.122;5.406;2023-03-26T01:15:00;100727.88;;;6.90;100.00
71735;BME280;59577;52.122;5.406;2023-03-26T01:17:33;100724.72;;;6.88;100.00
71735;BME280;59577;52.122;5.406;2023-03-26T01:20:17;100718.56;;;6.88;100.00
71735;BME280;59577;52.122;5.406;2023-03-26T01:22:50;100710.81;;;6.86;100.00
71735;BME280;59577;52.122;5.406;2023-03-26T01:25:20;100698.00;;;6.83;100.00
71735;BME280;59577;52.122;5.406;2023-03-26T01:27:53;100690.63;;;6.80;100.00
71735;BME280;59577;52.122;5.406;2023-03-26T01:30:27;100687.94;;;6.80;100.00
71735;BME280;59577;52.122;5.406;2023-03-26T01:35:49;100693.63;;;6.78;100.00
71735;BME280;59577;52.122;5.406;2023-03-26T01:38:40;100686.00;;;6.81;100.00
71735;BME280;59577;52.122;5.406;2023-03-26T01:41:20;100679.16;;;6.83;100.00
71735;BME280;59577;52.122;5.406;2023-03-26T01:46:28;100677.41;;;6.87;100.00
71735;BME280;59577;52.122;5.406;2023-03-26T01:49:03;100676.59;;;6.87;100.00
71735;BME280;59577;52.122;5.406;2023-03-26T01:51:34;100675.84;;;6.86;100.00
71735;BME280;59577;52.122;5.406;2023-03-26T01:54:03;100670.00;;;6.84;100.00
71735;BME280;59577;52.122;5.406;2023-03-26T01:57:01;100665.72;;;6.83;100.00
71735;BME280;59577;52.122;5.406;2023-03-26T02:07:52;100639.50;;;6.80;100.00
71735;BME280;59577;52.122;5.406;2023-03-26T02:10:28;100637.91;;;6.79;100.00
71735;BME280;59577;52.122;5.406;2023-03-26T02:12:58;100633.66;;;6.78;100.00
71735;BME280;59577;52.122;5.406;2023-03-26T02:15:28;100631.28;;;6.76;100.00
71735;BME280;59577;52.122;5.406;2023-03-26T02:17:54;100633.97;;;6.76;100.00
71735;BME280;59577;52.122;5.406;2023-03-26T02:20:21;100633.66;;;6.78;100.00
71735;BME280;59577;52.122;5.406;2023-03-26T02:22:50;100635.88;;;6.76;100.00
71735;BME280;59577;52.122;5.406;2023-03-26T02:25:26;100627.03;;;6.75;100.00
71735;BME280;59577;52.122;5.406;2023-03-26T02:27:52;100624.34;;;6.75;100.00
71735;BME280;59577;52.122;5.406;2023-03-26T02:30:27;100616.16;;;6.72;100.00
71735;BME280;59577;52.122;5.406;2023-03-26T02:32:55;100615.03;;;6.73;100.00
71735;BME280;59577;52.122;5.406;2023-03-26T02:35:24;100615.81;;;6.73;100.00
71735;BME280;59577;52.122;5.406;2023-03-26T02:37:51;100611.22;;;6.74;100.00
71735;BME280;59577;52.122;5.406;2023-03-26T02:40:20;100612.22;;;6.69;100.00
71735;BME280;59577;52.122;5.406;2023-03-26T02:42:48;100606.69;;;6.66;100.00
71735;BME280;59577;52.122;5.406;2023-03-26T02:45:15;100606.38;;;6.67;100.00
71735;BME280;59577;52.122;5.406;2023-03-26T02:47:41;100611.56;;;6.72;100.00
71735;BME280;59577;52.122;5.406;2023-03-26T02:50:08;100609.75;;;6.76;100.00
71735;BME280;59577;52.122;5.406;2023-03-26T02:52:43;100596.47;;;6.80;100.00
71735;BME280;59577;52.122;5.406;2023-03-26T02:55:18;100595.00;;;6.83;100.00
71735;BME280;59577;52.122;5.406;2023-03-26T02:57:45;100599.59;;;6.82;100.00
71735;BME280;59577;52.122;5.406;2023-03-26T03:00:22;100600.81;;;6.85;100.00
71735;BME280;59577;52.122;5.406;2023-03-26T03:02:49;100600.81;;;6.85;100.00
71735;BME280;59577;52.122;5.406;2023-03-26T03:05:15;100596.59;;;6.84;100.00
71735;BME280;59577;52.122;5.406;2023-03-26T03:07:46;100595.91;;;6.87;100.00
71735;BME280;59577;52.122;5.406;2023-03-26T03:10:13;100585.63;;;6.89;100.00
71735;BME280;59577;52.122;5.406;2023-03-26T03:12:41;100581.47;;;6.91;100.00
71735;BME280;59577;52.122;5.406;2023-03-26T03:15:11;100588.88;;;6.94;100.00
71735;BME280;59577;52.122;5.406;2023-03-26T03:17:37;100584.38;;;6.99;100.00
71735;BME280;59577;52.122;5.406;2023-03-26T03:20:18;100578.47;;;7.05;100.00
71735;BME280;59577;52.122;5.406;2023-03-26T03:23:07;100580.16;;;7.10;100.00
71735;BME280;59577;52.122;5.406;2023-03-26T03:25:34;100578.81;;;7.16;100.00
71735;BME280;59577;52.122;5.406;2023-03-26T03:28:14;100575.13;;;7.21;100.00
71735;BME280;59577;52.122;5.406;2023-03-26T03:31:04;100564.03;;;7.22;100.00
71735;BME280;59577;52.122;5.406;2023-03-26T03:33:34;100563.69;;;7.24;100.00
71735;BME280;59577;52.122;5.406;2023-03-26T03:36:03;100568.41;;;7.27;100.00
71735;BME280;59577;52.122;5.406;2023-03-26T03:38:45;100560.78;;;7.29;100.00
71735;BME280;59577;52.122;5.406;2023-03-26T03:41:12;100568.97;;;7.32;100.00
71735;BME280;59577;52.122;5.406;2023-03-26T03:43:45;100572.44;;;7.33;100.00
71735;BME280;59577;52.122;5.406;2023-03-26T03:46:11;100571.31;;;7.34;100.00
71735;BME280;59577;52.122;5.406;2023-03-26T03:48:38;100560.56;;;7.34;100.00
71735;BME280;59577;52.122;5.406;2023-03-26T03:51:07;100566.38;;;7.36;100.00
71735;BME280;59577;52.122;5.406;2023-03-26T03:53:34;100566.06;;;7.38;100.00
71735;BME280;59577;52.122;5.406;2023-03-26T03:56:16;100565.28;;;7.37;100.00
71735;BME280;59577;52.122;5.406;2023-03-26T03:58:54;100560.78;;;7.41;100.00
71735;BME280;59577;52.122;5.406;2023-03-26T04:01:23;100556.50;;;7.40;100.00
71735;BME280;59577;52.122;5.406;2023-03-26T04:03:50;100555.72;;;7.40;100.00
71735;BME280;59577;52.122;5.406;2023-03-26T04:06:17;100552.69;;;7.41;100.00
71735;BME280;59577;52.122;5.406;2023-03-26T04:08:45;100550.00;;;7.41;100.00
71735;BME280;59577;52.122;5.406;2023-03-26T04:11:12;100547.31;;;7.41;100.00
71735;BME280;59577;52.122;5.406;2023-03-26T04:13:39;100537.31;;;7.42;100.00
71735;BME280;59577;52.122;5.406;2023-03-26T04:16:06;100541.94;;;7.41;100.00
71735;BME280;59577;52.122;5.406;2023-03-26T04:18:33;100533.84;;;7.41;100.00
71735;BME280;59577;52.122;5.406;2023-03-26T04:20:59;100535.06;;;7.44;100.00
71735;BME280;59577;52.122;5.406;2023-03-26T04:23:28;100524.31;;;7.44;100.00
71735;BME280;59577;52.122;5.406;2023-03-26T04:25:55;100526.22;;;7.43;100.00
71735;BME280;59577;52.122;5.406;2023-03-26T04:28:31;100528.91;;;7.43;100.00
71735;BME280;59577;52.122;5.406;2023-03-26T04:31:08;100520.50;;;7.45;100.00
71735;BME280;59577;52.122;5.406;2023-03-26T04:34:08;100518.13;;;7.43;100.00
71735;BME280;59577;52.122;5.406;2023-03-26T04:36:39;100512.75;;;7.43;100.00
71735;BME280;59577;52.122;5.406;2023-03-26T04:39:09;100507.38;;;7.43;100.00
71735;BME280;59577;52.122;5.406;2023-03-26T04:41:36;100493.91;;;7.43;100.00
71735;BME280;59577;52.122;5.406;2023-03-26T04:44:05;100490.88;;;7.45;100.00
71735;BME280;59577;52.122;5.406;2023-03-26T04:46:32;100493.22;;;7.46;100.00
71735;BME280;59577;52.122;5.406;2023-03-26T04:48:59;100484.38;;;7.46;100.00
71735;BME280;59577;52.122;5.406;2023-03-26T04:51:32;100482.47;;;7.46;100.00
71735;BME280;59577;52.122;5.406;2023-03-26T04:54:00;100478.19;;;7.45;100.00
71735;BME280;59577;52.122;5.406;2023-03-26T04:56:49;100473.59;;;7.46;100.00
71735;BME280;59577;52.122;5.406;2023-03-26T04:59:29;100473.94;;;7.44;100.00
71735;BME280;59577;52.122;5.406;2023-03-26T05:02:04;100464.72;;;7.45;100.00
71735;BME280;59577;52.122;5.406;2023-03-26T05:04:31;100467.41;;;7.45;100.00
71735;BME280;59577;52.122;5.406;2023-03-26T05:07:02;100467.41;;;7.45;100.00
71735;BME280;59577;52.122;5.406;2023-03-26T05:09:28;100458.56;;;7.45;100.00
71735;BME280;59577;52.122;5.406;2023-03-26T05:11:56;100456.66;;;7.45;100.00
71735;BME280;59577;52.122;5.406;2023-03-26T05:14:23;100452.84;;;7.46;100.00
71735;BME280;59577;52.122;5.406;2023-03-26T05:16:51;100450.94;;;7.47;100.00
71735;BME280;59577;52.122;5.406;2023-03-26T05:19:18;100451.69;;;7.47;100.00
71735;BME280;59577;52.122;5.406;2023-03-26T05:21:45;100447.13;;;7.48;100.00
71735;BME280;59577;52.122;5.406;2023-03-26T05:24:17;100447.56;;;7.50;100.00
71735;BME280;59577;52.122;5.406;2023-03-26T05:26:45;100446.78;;;7.49;100.00
71735;BME280;59577;52.122;5.406;2023-03-26T05:29:12;100440.25;;;7.50;100.00
71735;BME280;59577;52.122;5.406;2023-03-26T05:31:40;100431.06;;;7.51;100.00
71735;BME280;59577;52.122;5.406;2023-03-26T05:34:06;100434.53;;;7.52;100.00
71735;BME280;59577;52.122;5.406;2023-03-26T05:36:33;100437.22;;;7.52;100.00
71735;BME280;59577;52.122;5.406;2023-03-26T05:38:59;100426.44;;;7.52;100.00
71735;BME280;59577;52.122;5.406;2023-03-26T05:41:26;100416.81;;;7.51;100.00
71735;BME280;59577;52.122;5.406;2023-03-26T05:43:53;100422.31;;;7.55;100.00
71735;BME280;59577;52.122;5.406;2023-03-26T05:46:19;100422.66;;;7.53;100.00
71735;BME280;59577;52.122;5.406;2023-03-26T05:48:48;100421.16;;;7.56;100.00
71735;BME280;59577;52.122;5.406;2023-03-26T05:51:27;100422.31;;;7.55;100.00
71735;BME280;59577;52.122;5.406;2023-03-26T05:53:54;100422.41;;;7.58;100.00
71735;BME280;59577;52.122;5.406;2023-03-26T05:56:21;100414.22;;;7.55;100.00
71735;BME280;59577;52.122;5.406;2023-03-26T05:58:47;100411.19;;;7.56;100.00
71735;BME280;59577;52.122;5.406;2023-03-26T06:01:15;100406.94;;;7.55;100.00
71735;BME280;59577;52.122;5.406;2023-03-26T06:03:43;100410.72;;;7.54;100.00
71735;BME280;59577;52.122;5.406;2023-03-26T06:06:13;100404.22;;;7.55;100.00
71735;BME280;59577;52.122;5.406;2023-03-26T06:08:56;100405.00;;;7.56;100.00
71735;BME280;59577;52.122;5.406;2023-03-26T06:11:27;100393.13;;;7.57;100.00
71735;BME280;59577;52.122;5.406;2023-03-26T06:13:54;100390.88;;;7.59;100.00
71735;BME280;59577;52.122;5.406;2023-03-26T06:16:23;100383.56;;;7.59;100.00
71735;BME280;59577;52.122;5.406;2023-03-26T06:19:04;100382.44;;;7.60;100.00
71735;BME280;59577;52.122;5.406;2023-03-26T06:21:31;100377.50;;;7.62;100.00
71735;BME280;59577;52.122;5.406;2023-03-26T06:23:58;100369.06;;;7.64;100.00
71735;BME280;59577;52.122;5.406;2023-03-26T06:26:49;100374.56;;;7.67;100.00
71735;BME280;59577;52.122;5.406;2023-03-26T06:29:17;100376.56;;;7.70;100.00
71735;BME280;59577;52.122;5.406;2023-03-26T06:32:04;100371.97;;;7.71;100.00
71735;BME280;59577;52.122;5.406;2023-03-26T06:34:44;100374.31;;;7.72;100.00
71735;BME280;59577;52.122;5.406;2023-03-26T06:37:11;100375.19;;;7.77;100.00
71735;BME280;59577;52.122;5.406;2023-03-26T06:39:37;100370.25;;;7.79;100.00
71735;BME280;59577;52.122;5.406;2023-03-26T06:42:04;100368.34;;;7.79;100.00
71735;BME280;59577;52.122;5.406;2023-03-26T06:44:33;100368.44;;;7.83;100.00
71735;BME280;59577;52.122;5.406;2023-03-26T06:46:59;100359.91;;;7.81;100.00
71735;BME280;59577;52.122;5.406;2023-03-26T06:49:26;100368.09;;;7.84;100.00
71735;BME280;59577;52.122;5.406;2023-03-26T06:51:53;100367.31;;;7.84;100.00
71735;BME280;59577;52.122;5.406;2023-03-26T06:54:20;100366.16;;;7.85;100.00
71735;BME280;59577;52.122;5.406;2023-03-26T06:56:47;100365.84;;;7.86;100.00
71735;BME280;59577;52.122;5.406;2023-03-26T06:59:16;100361.22;;;7.87;100.00
71735;BME280;59577;52.122;5.406;2023-03-26T07:01:49;100367.06;;;7.89;100.00
71735;BME280;59577;52.122;5.406;2023-03-26T07:04:31;100368.63;;;7.90;100.00
71735;BME280;59577;52.122;5.406;2023-03-26T07:07:00;100369.41;;;7.90;100.00
71735;BME280;59577;52.122;5.406;2023-03-26T07:09:29;100367.94;;;7.93;100.00
71735;BME280;59577;52.122;5.406;2023-03-26T07:12:01;100364.09;;;7.94;100.00
71735;BME280;59577;52.122;5.406;2023-03-26T07:14:43;100364.91;;;7.95;100.00
71735;BME280;59577;52.122;5.406;2023-03-26T07:17:18;100365.69;;;7.95;100.00
71735;BME280;59577;52.122;5.406;2023-03-26T07:19:45;100362.63;;;7.97;100.00
71735;BME280;59577;52.122;5.406;2023-03-26T07:22:20;100360.72;;;7.97;100.00
71735;BME280;59577;52.122;5.406;2023-03-26T07:24:48;100362.72;;;8.00;100.00
71735;BME280;59577;52.122;5.406;2023-03-26T07:30:04;100363.59;;;8.04;100.00
71735;BME280;59577;52.122;5.406;2023-03-26T07:33:00;100365.16;;;8.05;100.00
71735;BME280;59577;52.122;5.406;2023-03-26T07:38:44;100357.50;;;8.07;100.00
71735;BME280;59577;52.122;5.406;2023-03-26T07:41:23;100365.34;;;8.13;100.00
71735;BME280;59577;52.122;5.406;2023-03-26T07:44:03;100362.41;;;8.18;100.00
71735;BME280;59577;52.122;5.406;2023-03-26T07:46:35;100360.38;;;8.15;100.00
71735;BME280;59577;52.122;5.406;2023-03-26T07:49:03;100360.38;;;8.15;100.00
71735;BME280;59577;52.122;5.406;2023-03-26T07:51:31;100361.28;;;8.19;100.00
71735;BME280;59577;52.122;5.406;2023-03-26T07:53:58;100359.00;;;8.21;100.00
71735;BME280;59577;52.122;5.406;2023-03-26T07:56:38;100359.00;;;8.21;100.00
71735;BME280;59577;52.122;5.406;2023-03-26T07:59:29;100356.66;;;8.19;100.00
71735;BME280;59577;52.122;5.406;2023-03-26T08:07:44;100352.69;;;8.29;100.00
71735;BME280;59577;52.122;5.406;2023-03-26T08:10:29;100345.72;;;8.28;100.00
71735;BME280;59577;52.122;5.406;2023-03-26T08:16:22;100345.72;;;8.28;100.00
71735;BME280;59577;52.122;5.406;2023-03-26T08:18:51;100350.06;;;8.33;100.00
71735;BME280;59577;52.122;5.406;2023-03-26T08:21:34;100346.22;;;8.34;100.00
71735;BME280;59577;52.122;5.406;2023-03-26T08:24:21;100337.34;;;8.33;100.00
71735;BME280;59577;52.122;5.406;2023-03-26T08:30:14;100338.75;;;8.27;100.00
71735;BME280;59577;52.122;5.406;2023-03-26T08:32:54;100354.91;;;8.27;100.00
71735;BME280;59577;52.122;5.406;2023-03-26T08:35:23;100346.41;;;8.25;100.00
71735;BME280;59577;52.122;5.406;2023-03-26T08:37:49;100349.09;;;8.25;100.00
71735;BME280;59577;52.122;5.406;2023-03-26T08:49:18;100346.22;;;8.18;100.00
71735;BME280;59577;52.122;5.406;2023-03-26T08:55:14;100349.94;;;8.13;100.00
71735;BME280;59577;52.122;5.406;2023-03-26T08:58:14;100346.81;;;8.11;100.00
71735;BME280;59577;52.122;5.406;2023-03-26T09:12:33;100349.94;;;7.97;100.00
71735;BME280;59577;52.122;5.406;2023-03-26T09:18:14;100346.88;;;7.83;100.00
71735;BME280;59577;52.122;5.406;2023-03-26T09:21:04;100344.34;;;7.74;100.00
71735;BME280;59577;52.122;5.406;2023-03-26T09:26:45;100343.25;;;7.63;100.00
71735;BME280;59577;52.122;5.406;2023-03-26T09:29:30;100341.63;;;7.58;100.00
71735;BME280;59577;52.122;5.406;2023-03-26T09:35:27;100344.31;;;7.58;100.00
71735;BME280;59577;52.122;5.406;2023-03-26T09:38:31;100348.97;;;7.61;100.00
71735;BME280;59577;52.122;5.406;2023-03-26T09:46:41;100350.66;;;7.66;100.00
71735;BME280;59577;52.122;5.406;2023-03-26T10:01:02;100364.03;;;7.62;100.00
71735;BME280;59577;52.122;5.406;2023-03-26T10:09:00;100376.53;;;7.55;100.00
71735;BME280;59577;52.122;5.406;2023-03-26T10:17:30;100378.06;;;7.56;100.00
71735;BME280;59577;52.122;5.406;2023-03-26T10:23:24;100381.00;;;7.50;100.00
71735;BME280;59577;52.122;5.406;2023-03-26T10:28:47;100382.25;;;7.53;100.00
71735;BME280;59577;52.122;5.406;2023-03-26T10:52:59;100396.94;;;7.56;100.00
71735;BME280;59577;52.122;5.406;2023-03-26T10:55:39;100401.63;;;7.59;100.00
71735;BME280;59577;52.122;5.406;2023-03-26T10:58:17;100406.16;;;7.55;100.00
71735;BME280;59577;52.122;5.406;2023-03-26T11:00:54;100411.78;;;7.49;100.00
71735;BME280;59577;52.122;5.406;2023-03-26T11:03:42;100399.75;;;7.47;100.00
71735;BME280;59577;52.122;5.406;2023-03-26T11:06:32;100411.91;;;7.41;100.00
71735;BME280;59577;52.122;5.406;2023-03-26T11:20:16;100422.72;;;7.69;100.00
71735;BME280;59577;52.122;5.406;2023-03-26T11:23:12;100422.94;;;7.64;100.00
71735;BME280;59577;52.122;5.406;2023-03-26T11:25:56;100419.69;;;7.70;100.00
71735;BME280;59577;52.122;5.406;2023-03-26T11:28:37;100418.78;;;7.66;100.00
71735;BME280;59577;52.122;5.406;2023-03-26T11:34:01;100422.72;;;7.69;100.00
71735;BME280;59577;52.122;5.406;2023-03-26T11:36:34;100429.78;;;7.74;100.00
71735;BME280;59577;52.122;5.406;2023-03-26T11:39:05;100432.84;;;7.88;100.00
71735;BME280;59577;52.122;5.406;2023-03-26T11:41:35;100434.53;;;7.93;100.00
71735;BME280;59577;52.122;5.406;2023-03-26T11:44:08;100439.56;;;7.94;100.00
71735;BME280;59577;52.122;5.406;2023-03-26T11:46:42;100435.56;;;7.88;100.00
71735;BME280;59577;52.122;5.406;2023-03-26T11:49:11;100444.47;;;7.76;100.00
71735;BME280;59577;52.122;5.406;2023-03-26T11:51:41;100440.44;;;7.70;100.00
71735;BME280;59577;52.122;5.406;2023-03-26T11:54:10;100436.41;;;7.64;100.00
71735;BME280;59577;52.122;5.406;2023-03-26T11:59:40;100447.91;;;7.48;100.00
71735;BME280;59577;52.122;5.406;2023-03-26T12:02:29;100450.47;;;7.57;100.00
71735;BME280;59577;52.122;5.406;2023-03-26T12:05:20;100447.88;;;7.61;100.00
71735;BME280;59577;52.122;5.406;2023-03-26T12:07:55;100451.91;;;7.67;100.00
71735;BME280;59577;52.122;5.406;2023-03-26T12:10:29;100452.63;;;7.80;100.00
71735;BME280;59577;52.122;5.406;2023-03-26T12:13:00;100459.13;;;7.91;100.00
71735;BME280;59577;52.122;5.406;2023-03-26T12:15:29;100460.78;;;7.96;100.00
71735;BME280;59577;52.122;5.406;2023-03-26T12:17:58;100459.75;;;8.00;100.00
71735;BME280;59577;52.122;5.406;2023-03-26T12:20:42;100458.63;;;8.01;100.00
71735;BME280;59577;52.122;5.406;2023-03-26T12:26:18;100460.84;;;8.12;100.00
71735;BME280;59577;52.122;5.406;2023-03-26T12:28:48;100466.59;;;8.26;100.00
71735;BME280;59577;52.122;5.406;2023-03-26T12:31:16;100466.75;;;8.45;100.00
71735;BME280;59577;52.122;5.406;2023-03-26T12:34:02;100466.94;;;8.53;100.00
71735;BME280;59577;52.122;5.406;2023-03-26T12:36:31;100470.59;;;8.44;100.00
71735;BME280;59577;52.122;5.406;2023-03-26T12:38:58;100474.59;;;8.51;100.00
71735;BME280;59577;52.122;5.406;2023-03-26T12:41:53;100480.16;;;8.58;100.00
71735;BME280;59577;52.122;5.406;2023-03-26T12:44:56;100471.59;;;8.40;100.00
71735;BME280;59577;52.122;5.406;2023-03-26T12:47:27;100474.72;;;8.42;100.00
71735;BME280;59577;52.122;5.406;2023-03-26T12:50:22;100479.13;;;8.46;100.00
71735;BME280;59577;52.122;5.406;2023-03-26T12:56:00;100483.91;;;8.53;100.00
71735;BME280;59577;52.122;5.406;2023-03-26T12:59:03;100492.97;;;8.61;100.00
71735;BME280;59577;52.122;5.406;2023-03-26T13:01:49;100490.53;;;8.56;100.00
71735;BME280;59577;52.122;5.406;2023-03-26T13:10:46;100501.97;;;8.97;100.00
71735;BME280;59577;52.122;5.406;2023-03-26T13:13:41;100494.81;;;9.04;100.00
71735;BME280;59577;52.122;5.406;2023-03-26T13:18:58;100511.19;;;9.28;100.00
71735;BME280;59577;52.122;5.406;2023-03-26T13:30:13;100524.69;;;9.28;100.00
71735;BME280;59577;52.122;5.406;2023-03-26T13:32:55;100521.25;;;9.31;99.27
71735;BME280;59577;52.122;5.406;2023-03-26T13:35:33;100528.84;;;9.25;99.01
71735;BME280;59577;52.122;5.406;2023-03-26T13:38:09;100522.59;;;9.05;99.03
71735;BME280;59577;52.122;5.406;2023-03-26T13:43:37;100529.47;;;9.02;96.27
71735;BME280;59577;52.122;5.406;2023-03-26T13:46:15;100535.47;;;9.12;96.81
71735;BME280;59577;52.122;5.406;2023-03-26T13:49:02;100536.34;;;9.16;95.47
71735;BME280;59577;52.122;5.406;2023-03-26T13:51:39;100533.06;;;9.22;96.19
71735;BME280;59577;52.122;5.406;2023-03-26T13:57:05;100539.06;;;9.16;93.90
71735;BME280;59577;52.122;5.406;2023-03-26T13:59:40;100543.25;;;9.29;93.72
71735;BME280;59577;52.122;5.406;2023-03-26T14:02:19;100547.75;;;9.41;93.26
71735;BME280;59577;52.122;5.406;2023-03-26T14:04:54;100545.31;;;9.52;93.40
71735;BME280;59577;52.122;5.406;2023-03-26T14:07:26;100547.75;;;9.57;92.67
71735;BME280;59577;52.122;5.406;2023-03-26T14:10:06;100553.41;;;9.52;92.13
71735;BME280;59577;52.122;5.406;2023-03-26T14:12:43;100559.66;;;9.56;91.07
71735;BME280;59577;52.122;5.406;2023-03-26T14:15:20;100566.38;;;9.46;90.31
71735;BME280;59577;52.122;5.406;2023-03-26T14:17:53;100565.09;;;9.24;90.84
71735;BME280;59577;52.122;5.406;2023-03-26T14:32:17;100587.16;;;9.10;89.96
71735;BME280;59577;52.122;5.406;2023-03-26T14:35:09;100588.09;;;9.02;89.99
71735;BME280;59577;52.122;5.406;2023-03-26T14:38:46;100592.81;;;9.05;89.31
71735;BME280;59577;52.122;5.406;2023-03-26T14:40:56;100597.06;;;9.22;90.14
71735;BME280;59577;52.122;5.406;2023-03-26T14:43:51;100599.50;;;9.27;89.33
71735;BME280;59577;52.122;5.406;2023-03-26T14:46:36;100614.25;;;9.30;88.93
71735;BME280;59577;52.122;5.406;2023-03-26T14:51:59;100630.28;;;9.22;88.15
71735;BME280;59577;52.122;5.406;2023-03-26T14:54:30;100620.16;;;9.19;90.17
71735;BME280;59577;52.122;5.406;2023-03-26T14:57:07;100627.13;;;9.20;89.44
71735;BME280;59577;52.122;5.406;2023-03-26T15:05:30;100645.41;;;9.11;89.66
71735;BME280;59577;52.122;5.406;2023-03-26T15:11:21;100655.53;;;8.86;85.94
71735;BME280;59577;52.122;5.406;2023-03-26T15:14:53;100656.38;;;8.74;85.99
71735;BME280;59577;52.122;5.406;2023-03-26T15:22:49;100669.19;;;8.65;85.36
71735;BME280;59577;52.122;5.406;2023-03-26T15:31:21;100668.09;;;8.94;83.07
71735;BME280;59577;52.122;5.406;2023-03-26T15:34:11;100678.00;;;8.90;83.25
71735;BME280;59577;52.122;5.406;2023-03-26T15:45:32;100705.97;;;8.98;83.44
71735;BME280;59577;52.122;5.406;2023-03-26T15:51:02;100713.91;;;9.07;82.75
71735;BME280;59577;52.122;5.406;2023-03-26T15:56:18;100729.41;;;8.94;83.20
71735;BME280;59577;52.122;5.406;2023-03-26T16:01:45;100737.56;;;8.69;82.08
71735;BME280;59577;52.122;5.406;2023-03-26T16:04:34;100744.31;;;8.63;81.87
71735;BME280;59577;52.122;5.406;2023-03-26T16:10:09;100761.53;;;8.58;83.00
71735;BME280;59577;52.122;5.406;2023-03-26T16:15:48;100773.09;;;8.34;81.62
71735;BME280;59577;52.122;5.406;2023-03-26T16:18:24;100777.25;;;8.32;80.00
71735;BME280;59577;52.122;5.406;2023-03-26T16:21:22;100774.09;;;8.29;81.25
71735;BME280;59577;52.122;5.406;2023-03-26T16:32:03;100794.56;;;8.31;80.36
71735;BME280;59577;52.122;5.406;2023-03-26T16:34:57;100799.94;;;8.18;80.21
71735;BME280;59577;52.122;5.406;2023-03-26T16:40:27;100817.13;;;8.01;78.90
71735;BME280;59577;52.122;5.406;2023-03-26T16:48:44;100849.44;;;7.89;77.54
71735;BME280;59577;52.122;5.406;2023-03-26T16:57:14;100850.91;;;7.99;79.28
71735;BME280;59577;52.122;5.406;2023-03-26T17:11:31;100889.16;;;7.59;75.42
71735;BME280;59577;52.122;5.406;2023-03-26T17:14:14;100889.22;;;7.50;76.63
71735;BME280;59577;52.122;5.406;2023-03-26T17:16:48;100897.06;;;7.43;76.95
71735;BME280;59577;52.122;5.406;2023-03-26T17:25:32;100919.75;;;7.12;74.49
71735;BME280;59577;52.122;5.406;2023-03-26T17:28:40;100926.53;;;7.09;75.35
71735;BME280;59577;52.122;5.406;2023-03-26T17:31:15;100924.22;;;7.08;77.75
71735;BME280;59577;52.122;5.406;2023-03-26T17:33:44;100937.53;;;7.04;76.47
71735;BME280;59577;52.122;5.406;2023-03-26T17:41:11;100963.53;;;6.91;75.42
71735;BME280;59577;52.122;5.406;2023-03-26T17:54:21;100977.22;;;6.69;76.46
71735;BME280;59577;52.122;5.406;2023-03-26T17:56:54;100983.22;;;6.74;76.98
71735;BME280;59577;52.122;5.406;2023-03-26T17:59:24;100987.50;;;6.75;76.28
71735;BME280;59577;52.122;5.406;2023-03-26T18:01:58;100991.13;;;6.71;74.13
71735;BME280;59577;52.122;5.406;2023-03-26T18:04:37;101000.47;;;6.73;73.37
71735;BME280;59577;52.122;5.406;2023-03-26T18:15:29;101026.16;;;6.53;74.43
71735;BME280;59577;52.122;5.406;2023-03-26T18:18:19;101027.09;;;6.40;74.17
71735;BME280;59577;52.122;5.406;2023-03-26T18:20:48;101035.19;;;6.31;74.99
71735;BME280;59577;52.122;5.406;2023-03-26T18:23:55;101035.84;;;6.28;74.98